^^
Grace C. Lehan Memorial Weather Station Historical Data
Daily Summary for February 1, 2021 Units:  English    Metric   Both
Daily Weekly Monthly Yearly
  High: Low: Average:
Temperature: 32.2 °F 20.6 °F 25.8 °F
Dew Point: 30.9 °F 15.9 °F 23.6 °F
Humidity: 95% 80% 92%
Wind Speed: 10mph 0.6mph 5.6mph
Wind Gust: 24mph - -
Wind- - East
Pressure: 30.20 in 29.61 in -
Precipitation: 0.00 in    
 
 
Tabular Data for February 1, 2021
Time Temperature Dew Point Pressure Wind Wind Speed Wind Gust Humidity Rainfall Rate (Hourly) solar
00:04 21.1 °F 15.9 °F 30.20 in NNW 1.2 mph 11 mph 80% 0.00 in 0 W/m2
00:09 21.1 °F 16.1 °F 30.20 in North 2.8 mph 6 mph 80.8% 0.00 in 0 W/m2
00:14 21 °F 16.1 °F 30.20 in North 0.6 mph 6 mph 81% 0.00 in 0 W/m2
00:19 21 °F 16.1 °F 30.20 in NNE 2.6 mph 9 mph 81% 0.00 in 0 W/m2
00:24 21 °F 16.3 °F 30.20 in North 2.2 mph 9 mph 81.7% 0.00 in 0 W/m2
00:29 20.9 °F 16.3 °F 30.19 in North 2.7 mph 9 mph 82% 0.00 in 0 W/m2
00:34 20.9 °F 16.3 °F 30.19 in North 3.3 mph 9 mph 82% 0.00 in 0 W/m2
00:39 20.9 °F 16.3 °F 30.19 in North 3.7 mph 8 mph 82% 0.00 in 0 W/m2
00:44 20.9 °F 16.3 °F 30.19 in NNW 2.7 mph 8 mph 82.1% 0.00 in 0 W/m2
00:49 20.9 °F 16.6 °F 30.19 in NNW 2.8 mph 8 mph 83% 0.00 in 0 W/m2
00:54 20.9 °F 16.6 °F 30.19 in NNW 2.3 mph 8 mph 83% 0.00 in 0 W/m2
00:59 20.8 °F 16.5 °F 30.19 in NE 2.3 mph 8 mph 83% 0.00 in 0 W/m2
01:04 20.8 °F 16.7 °F 30.19 in NNE 3 mph 8 mph 83.8% 0.00 in 0 W/m2
01:09 20.7 °F 16.7 °F 30.18 in NNE 2.8 mph 8 mph 84% 0.00 in 0 W/m2
01:14 20.7 °F 16.6 °F 30.18 in NNE 1.4 mph 8 mph 84% 0.00 in 0 W/m2
01:19 20.7 °F 16.9 °F 30.19 in NNW 3 mph 11 mph 85% 0.00 in 0 W/m2
01:24 20.7 °F 16.9 °F 30.18 in North 3.9 mph 11 mph 85% 0.00 in 0 W/m2
01:29 20.7 °F 16.9 °F 30.19 in North 2.9 mph 11 mph 85% 0.00 in 0 W/m2
01:34 20.7 °F 17 °F 30.19 in North 1.3 mph 11 mph 85.3% 0.00 in 0 W/m2
01:39 20.7 °F 17.2 °F 30.18 in North 2.8 mph 5 mph 86% 0.00 in 0 W/m2
01:40 20.7 °F 17.1 °F 30.18 in North 3.2 mph 5 mph 86% 0.00 in 0 W/m2
02:00 20.6 °F 17.4 °F 30.18 in North 3 mph 11 mph 87% 0.00 in 0 W/m2
02:30 20.6 °F 17.6 °F 30.17 in North 3 mph 11 mph 88% 0.00 in 0 W/m2
03:00 20.8 °F 17.8 °F 30.16 in North 4 mph 12 mph 88% 0.00 in 0 W/m2
03:30 20.9 °F 18.2 °F 30.14 in North 3 mph 9 mph 89% 0.00 in 0 W/m2
04:04 21.2 °F 18.4 °F 30.14 in North 4.4 mph 9 mph 89% 0.00 in 0 W/m2
04:09 21.2 °F 18.5 °F 30.14 in North 4 mph 9 mph 89% 0.00 in 0 W/m2
04:14 21.2 °F 18.5 °F 30.14 in North 4.2 mph 13 mph 89% 0.00 in 0 W/m2
04:19 21.3 °F 18.6 °F 30.13 in NNW 4 mph 13 mph 89% 0.00 in 0 W/m2
04:24 21.3 °F 18.6 °F 30.13 in NNW 3.7 mph 13 mph 89% 0.00 in 0 W/m2
04:29 21.4 °F 18.7 °F 30.13 in North 4 mph 13 mph 89% 0.00 in 0 W/m2
04:34 21.4 °F 18.9 °F 30.12 in North 4.1 mph 13 mph 89.8% 0.00 in 0 W/m2
04:39 21.5 °F 19 °F 30.12 in North 4.2 mph 9 mph 90% 0.00 in 0 W/m2
04:44 21.5 °F 19.1 °F 30.12 in North 4.5 mph 12 mph 90% 0.00 in 0 W/m2
04:49 21.6 °F 19.1 °F 30.12 in NNW 5.2 mph 12 mph 90% 0.00 in 0 W/m2
04:54 21.6 °F 19.2 °F 30.12 in North 4.5 mph 12 mph 90% 0.00 in 0 W/m2
04:59 21.7 °F 19.2 °F 30.12 in North 3.8 mph 12 mph 90% 0.00 in 0 W/m2
05:04 21.8 °F 19.3 °F 30.12 in North 4.7 mph 12 mph 90% 0.00 in 0 W/m2
05:09 21.8 °F 19.3 °F 30.12 in North 4.5 mph 11 mph 90% 0.00 in 0 W/m2
05:14 21.9 °F 19.4 °F 30.12 in North 3.7 mph 11 mph 90% 0.00 in 0 W/m2
05:19 22 °F 19.5 °F 30.12 in North 4.4 mph 11 mph 90% 0.00 in 0 W/m2
05:24 22 °F 19.5 °F 30.11 in North 4.6 mph 11 mph 90% 0.00 in 0 W/m2
05:29 22.1 °F 19.6 °F 30.11 in North 3.5 mph 11 mph 90% 0.00 in 0 W/m2
05:34 22.1 °F 19.6 °F 30.11 in North 5 mph 14 mph 90% 0.00 in 0 W/m2
05:39 22.1 °F 19.6 °F 30.11 in NNW 4.7 mph 14 mph 90% 0.00 in 0 W/m2
05:44 22.1 °F 19.6 °F 30.11 in NNE 5.1 mph 14 mph 90% 0.00 in 0 W/m2
05:49 22.1 °F 19.6 °F 30.11 in North 5.4 mph 14 mph 90% 0.00 in 0 W/m2
05:54 22.2 °F 19.7 °F 30.11 in NNE 4.1 mph 14 mph 90% 0.00 in 0 W/m2
05:59 22.2 °F 19.7 °F 30.11 in North 4.9 mph 14 mph 90% 0.00 in 0 W/m2
06:04 22.2 °F 19.7 °F 30.10 in North 4.8 mph 14 mph 90% 0.00 in 0 W/m2
06:09 22.2 °F 19.7 °F 30.11 in NNE 4.5 mph 12 mph 90% 0.00 in 0 W/m2
06:14 22.2 °F 19.7 °F 30.11 in North 4.9 mph 12 mph 90% 0.00 in 0 W/m2
06:19 22.2 °F 19.7 °F 30.11 in NNE 5.1 mph 12 mph 90% 0.00 in 0 W/m2
06:24 22.2 °F 19.7 °F 30.11 in NNE 4.9 mph 12 mph 90% 0.00 in 0 W/m2
06:29 22.2 °F 19.7 °F 30.11 in NNE 3.6 mph 12 mph 90% 0.00 in 0 W/m2
06:34 22.2 °F 19.7 °F 30.11 in NNE 3.8 mph 12 mph 90% 0.00 in 0 W/m2
06:39 22.2 °F 19.7 °F 30.11 in North 4.6 mph 10 mph 90% 0.00 in 0 W/m2
06:44 22.2 °F 19.7 °F 30.11 in NNE 5 mph 10 mph 90% 0.00 in 0 W/m2
06:49 22.2 °F 19.7 °F 30.11 in NNE 4.8 mph 11 mph 90% 0.00 in 0 W/m2
06:54 22.2 °F 19.8 °F 30.11 in North 5 mph 11 mph 90% 0.00 in 0 W/m2
06:59 22.2 °F 19.7 °F 30.10 in North 4.2 mph 11 mph 90% 0.00 in 0 W/m2
07:04 22.2 °F 19.7 °F 30.10 in North 5.4 mph 11 mph 90% 0.00 in 0 W/m2
07:09 22.2 °F 19.7 °F 30.10 in North 5.1 mph 10 mph 90% 0.00 in 0 W/m2
07:14 22.1 °F 19.6 °F 30.11 in North 3.3 mph 11 mph 90% 0.00 in 0 W/m2
07:19 22.1 °F 19.6 °F 30.11 in North 4.3 mph 11 mph 90% 0.00 in 0 W/m2
07:24 22 °F 19.5 °F 30.10 in NNE 4 mph 11 mph 90% 0.00 in 0 W/m2
07:29 22 °F 19.5 °F 30.10 in North 4.8 mph 13 mph 90% 0.00 in 0 W/m2
07:34 22 °F 19.5 °F 30.10 in North 5.1 mph 13 mph 90% 0.00 in 0 W/m2
07:39 22 °F 19.5 °F 30.10 in North 5 mph 12 mph 90% 0.00 in 0 W/m2
07:44 22 °F 19.5 °F 30.10 in North 6 mph 12 mph 90% 0.00 in 0 W/m2
07:49 21.9 °F 19.4 °F 30.10 in North 3.9 mph 14 mph 90% 0.00 in 5 W/m2
07:54 21.8 °F 19.4 °F 30.10 in North 6 mph 17 mph 90% 0.00 in 7 W/m2
07:59 21.8 °F 19.3 °F 30.10 in NNW 5.4 mph 17 mph 90% 0.00 in 7 W/m2
08:04 21.8 °F 19.3 °F 30.09 in NNE 5.3 mph 8 mph 90% 0.00 in 9 W/m2
08:09 21.8 °F 19.3 °F 30.10 in NNW 6.1 mph 12 mph 90% 0.00 in 11 W/m2
08:14 21.8 °F 19.3 °F 30.10 in NNE 5.1 mph 12 mph 90% 0.00 in 14 W/m2
08:19 21.8 °F 19.3 °F 30.09 in North 5.2 mph 12 mph 90% 0.00 in 14 W/m2
08:24 21.8 °F 19.3 °F 30.08 in NNE 5.3 mph 12 mph 90% 0.00 in 18 W/m2
08:29 21.9 °F 19.4 °F 30.08 in North 5.3 mph 13 mph 90% 0.00 in 19 W/m2
08:34 21.9 °F 19.5 °F 30.08 in NNE 4.7 mph 13 mph 90% 0.00 in 25 W/m2
08:39 22 °F 19.5 °F 30.08 in NNE 5.3 mph 10 mph 90% 0.00 in 25 W/m2
08:44 22.1 °F 19.6 °F 30.08 in North 4.7 mph 12 mph 90% 0.00 in 23 W/m2
08:49 22.1 °F 19.6 °F 30.08 in North 4.4 mph 12 mph 90% 0.00 in 23 W/m2
08:54 22.2 °F 19.7 °F 30.08 in NNE 4.9 mph 12 mph 90% 0.00 in 25 W/m2
08:59 22.3 °F 19.8 °F 30.08 in North 4.6 mph 12 mph 90% 0.00 in 25 W/m2
09:04 22.3 °F 19.9 °F 30.08 in NNE 4.9 mph 12 mph 90% 0.00 in 25 W/m2
09:09 22.4 °F 19.9 °F 30.08 in NNE 4.3 mph 12 mph 90% 0.00 in 25 W/m2
09:14 22.5 °F 20 °F 30.07 in NNE 4.4 mph 12 mph 90% 0.00 in 25 W/m2
09:19 22.5 °F 20 °F 30.07 in NNE 5.1 mph 15 mph 90% 0.00 in 26 W/m2
09:24 22.6 °F 20.1 °F 30.07 in North 4.7 mph 15 mph 90% 0.00 in 26 W/m2
09:29 22.6 °F 20.1 °F 30.07 in NNE 4.1 mph 15 mph 90% 0.00 in 28 W/m2
09:34 22.7 °F 20.2 °F 30.07 in North 6 mph 15 mph 90% 0.00 in 30 W/m2
09:39 22.8 °F 20.3 °F 30.07 in North 3.7 mph 14 mph 90% 0.00 in 33 W/m2
09:44 22.9 °F 20.4 °F 30.07 in North 4.4 mph 14 mph 90% 0.00 in 35 W/m2
09:49 22.9 °F 20.4 °F 30.06 in North 5.2 mph 14 mph 90% 0.00 in 32 W/m2
09:54 23 °F 20.5 °F 30.06 in North 4.8 mph 14 mph 90% 0.00 in 30 W/m2
09:59 23.1 °F 20.6 °F 30.06 in North 3.8 mph 14 mph 90% 0.00 in 30 W/m2
10:04 23.2 °F 20.7 °F 30.05 in North 5.2 mph 14 mph 90% 0.00 in 40 W/m2
10:09 23.3 °F 20.8 °F 30.05 in NNE 6.2 mph 12 mph 90% 0.00 in 53 W/m2
10:14 23.5 °F 21 °F 30.04 in North 5.1 mph 14 mph 90% 0.00 in 51 W/m2
10:19 23.6 °F 21.1 °F 30.04 in NNE 5.3 mph 14 mph 90% 0.00 in 35 W/m2
10:24 23.6 °F 21.1 °F 30.04 in North 6.5 mph 14 mph 90% 0.00 in 42 W/m2
10:29 23.8 °F 21.3 °F 30.03 in NNE 5.5 mph 14 mph 90% 0.00 in 51 W/m2
10:34 23.9 °F 21.4 °F 30.03 in North 4.2 mph 14 mph 90% 0.00 in 51 W/m2
10:39 24 °F 21.5 °F 30.03 in North 5.9 mph 13 mph 90% 0.00 in 44 W/m2
10:44 24.2 °F 21.7 °F 30.03 in NNE 6.2 mph 13 mph 90% 0.00 in 39 W/m2
10:49 24.2 °F 21.7 °F 30.03 in North 6.5 mph 13 mph 90% 0.00 in 33 W/m2
10:54 24.3 °F 21.8 °F 30.02 in North 5.1 mph 13 mph 90% 0.00 in 39 W/m2
10:59 24.5 °F 22 °F 30.02 in North 5.9 mph 14 mph 90.3% 0.00 in 44 W/m2
11:04 24.6 °F 22.3 °F 30.01 in North 5.9 mph 14 mph 91% 0.00 in 46 W/m2
11:09 24.7 °F 22.5 °F 30.00 in North 5.3 mph 12 mph 91% 0.00 in 47 W/m2
11:14 24.8 °F 22.6 °F 30.00 in North 6.2 mph 13 mph 91% 0.00 in 46 W/m2
11:19 24.9 °F 22.7 °F 29.99 in North 5.8 mph 13 mph 91% 0.00 in 35 W/m2
11:24 25 °F 22.8 °F 29.99 in North 6.9 mph 15 mph 91% 0.00 in 42 W/m2
11:29 25.1 °F 22.8 °F 29.99 in NNW 6.4 mph 15 mph 91% 0.00 in 42 W/m2
11:34 25.1 °F 22.9 °F 29.98 in North 5.9 mph 15 mph 91% 0.00 in 42 W/m2
11:39 25.2 °F 23 °F 29.98 in North 5.5 mph 13 mph 91% 0.00 in 42 W/m2
11:44 25.2 °F 23 °F 29.98 in North 6.6 mph 14 mph 91% 0.00 in 39 W/m2
11:49 25.3 °F 23 °F 29.97 in North 7.1 mph 14 mph 91% 0.00 in 39 W/m2
11:54 25.3 °F 23.1 °F 29.97 in North 5.5 mph 14 mph 91% 0.00 in 35 W/m2
11:59 25.3 °F 23.1 °F 29.97 in North 4.7 mph 16 mph 91% 0.00 in 33 W/m2
12:09 25.5 °F 23.2 °F 29.96 in North 6.7 mph 11 mph 91% 0.00 in 33 W/m2
12:14 25.6 °F 23.3 °F 29.96 in North 5.4 mph 11 mph 91% 0.00 in 30 W/m2
12:19 25.7 °F 23.4 °F 29.96 in NNW 6.8 mph 16 mph 91% 0.00 in 28 W/m2
12:24 25.7 °F 23.4 °F 29.96 in North 4.6 mph 16 mph 91% 0.00 in 28 W/m2
12:29 25.8 °F 23.5 °F 29.95 in North 5.8 mph 16 mph 91% 0.00 in 25 W/m2
12:34 25.8 °F 23.5 °F 29.95 in NNE 5.1 mph 16 mph 91% 0.00 in 25 W/m2
12:39 25.9 °F 23.7 °F 29.95 in North 5.2 mph 12 mph 91.3% 0.00 in 32 W/m2
12:44 26 °F 24 °F 29.94 in North 5.4 mph 12 mph 92% 0.00 in 26 W/m2
12:49 26 °F 24 °F 29.93 in North 5.7 mph 14 mph 92% 0.00 in 25 W/m2
12:54 26 °F 24 °F 29.93 in NNE 5.8 mph 14 mph 92% 0.00 in 28 W/m2
12:59 26.1 °F 24.1 °F 29.92 in NNE 6.1 mph 14 mph 92% 0.00 in 26 W/m2
13:04 26.1 °F 24.1 °F 29.92 in NNE 5.9 mph 14 mph 92% 0.00 in 28 W/m2
13:09 26.1 °F 24.1 °F 29.91 in North 5.5 mph 13 mph 92% 0.00 in 28 W/m2
13:14 26.2 °F 24.2 °F 29.91 in North 5.4 mph 13 mph 92% 0.00 in 28 W/m2
13:19 26.2 °F 24.2 °F 29.91 in North 5.8 mph 13 mph 92% 0.00 in 30 W/m2
13:24 26.2 °F 24.2 °F 29.90 in North 6.2 mph 13 mph 92% 0.00 in 26 W/m2
13:29 26.3 °F 24.3 °F 29.90 in NNE 6.4 mph 13 mph 92% 0.00 in 26 W/m2
13:34 26.3 °F 24.3 °F 29.90 in NNE 5.3 mph 13 mph 92% 0.00 in 25 W/m2
13:39 26.3 °F 24.3 °F 29.89 in North 6.1 mph 13 mph 92% 0.00 in 23 W/m2
13:44 26.3 °F 24.3 °F 29.89 in North 5.2 mph 13 mph 92% 0.00 in 23 W/m2
13:49 26.4 °F 24.4 °F 29.89 in North 6.7 mph 13 mph 92% 0.00 in 18 W/m2
13:54 26.4 °F 24.4 °F 29.89 in NNE 5 mph 14 mph 92% 0.00 in 16 W/m2
13:59 26.4 °F 24.4 °F 29.89 in North 6.4 mph 16 mph 92% 0.00 in 16 W/m2
14:04 26.4 °F 24.4 °F 29.89 in North 5 mph 16 mph 92% 0.00 in 18 W/m2
14:09 26.4 °F 24.4 °F 29.89 in North 6.8 mph 15 mph 92% 0.00 in 18 W/m2
14:14 26.5 °F 24.7 °F 29.89 in NNE 6 mph 15 mph 93% 0.00 in 19 W/m2
14:19 26.5 °F 24.8 °F 29.89 in North 6.6 mph 16 mph 93% 0.00 in 18 W/m2
14:24 26.5 °F 24.8 °F 29.88 in North 5.8 mph 16 mph 93% 0.00 in 16 W/m2
14:29 26.6 °F 24.8 °F 29.88 in North 6.6 mph 17 mph 93% 0.00 in 16 W/m2
14:34 26.6 °F 24.9 °F 29.88 in North 6.9 mph 17 mph 93% 0.00 in 18 W/m2
14:39 26.7 °F 25 °F 29.87 in North 5.4 mph 16 mph 93% 0.00 in 16 W/m2
14:44 26.7 °F 25 °F 29.87 in North 6.5 mph 18 mph 93% 0.00 in 12 W/m2
14:49 26.7 °F 25 °F 29.87 in NNE 5.5 mph 18 mph 93% 0.00 in 12 W/m2
14:54 26.7 °F 25 °F 29.86 in North 6.1 mph 18 mph 93% 0.00 in 12 W/m2
14:59 26.8 °F 25.1 °F 29.87 in North 8.1 mph 21 mph 93% 0.00 in 11 W/m2
15:04 26.8 °F 25.1 °F 29.87 in North 6.7 mph 21 mph 93% 0.00 in 11 W/m2
15:09 26.9 °F 25.1 °F 29.87 in NNE 5.9 mph 18 mph 93% 0.00 in 9 W/m2
15:14 26.9 °F 25.2 °F 29.87 in North 6.4 mph 18 mph 93% 0.00 in 9 W/m2
15:19 26.9 °F 25.2 °F 29.87 in North 6.5 mph 18 mph 93% 0.00 in 11 W/m2
15:24 27 °F 25.2 °F 29.86 in NNE 6 mph 18 mph 93% 0.00 in 12 W/m2
15:29 27 °F 25.3 °F 29.86 in North 6.8 mph 18 mph 93% 0.00 in 12 W/m2
15:34 27 °F 25.3 °F 29.86 in North 7.1 mph 18 mph 93% 0.00 in 7 W/m2
15:39 27.1 °F 25.3 °F 29.86 in NNE 5.9 mph 16 mph 93% 0.00 in 5 W/m2
15:44 27.1 °F 25.3 °F 29.86 in North 8 mph 16 mph 93% 0.00 in 0 W/m2
15:49 27.1 °F 25.4 °F 29.86 in North 7.4 mph 16 mph 93% 0.00 in 5 W/m2
15:54 27.1 °F 25.4 °F 29.86 in NNE 6 mph 18 mph 93% 0.00 in 5 W/m2
15:58 27.2 °F 25.4 °F 29.86 in North 6.9 mph 18 mph 93% 0.00 in 0 W/m2
16:04 27.2 °F 25.5 °F 29.85 in North 7 mph 12 mph 93% 0.00 in 0 W/m2
16:09 27.3 °F 25.5 °F 29.85 in NNE 6.1 mph 12 mph 93% 0.00 in 0 W/m2
16:14 27.3 °F 25.6 °F 29.85 in North 6.6 mph 12 mph 93% 0.00 in 0 W/m2
16:19 27.4 °F 25.7 °F 29.86 in North 6.2 mph 13 mph 93.2% 0.00 in 0 W/m2
16:24 27.5 °F 25.7 °F 29.85 in North 7.1 mph 14 mph 93% 0.00 in 0 W/m2
16:29 27.5 °F 25.8 °F 29.84 in NNE 5.8 mph 14 mph 93% 0.00 in 0 W/m2
16:34 27.6 °F 25.8 °F 29.85 in North 6.4 mph 16 mph 93% 0.00 in 0 W/m2
16:39 27.7 °F 26.1 °F 29.84 in North 5.9 mph 16 mph 93.5% 0.00 in 0 W/m2
16:44 27.8 °F 26.3 °F 29.84 in North 6.4 mph 16 mph 94% 0.00 in 0 W/m2
16:49 27.9 °F 26.4 °F 29.84 in NNE 6.3 mph 21 mph 94% 0.00 in 0 W/m2
16:54 28 °F 26.5 °F 29.83 in North 5.8 mph 21 mph 94% 0.00 in 0 W/m2
16:59 28 °F 26.5 °F 29.83 in NNE 5.4 mph 21 mph 94% 0.00 in 0 W/m2
17:04 28.1 °F 26.6 °F 29.83 in NNE 6.4 mph 21 mph 94% 0.00 in 0 W/m2
17:09 28.2 °F 26.7 °F 29.83 in NNE 6.3 mph 13 mph 94% 0.00 in 0 W/m2
17:14 28.3 °F 26.8 °F 29.83 in North 6.9 mph 14 mph 94% 0.00 in 0 W/m2
17:19 28.4 °F 26.9 °F 29.83 in NNE 7.2 mph 15 mph 94% 0.00 in 0 W/m2
17:24 28.5 °F 27 °F 29.82 in NNE 6.9 mph 15 mph 94% 0.00 in 0 W/m2
17:29 28.5 °F 27 °F 29.82 in NNE 7.8 mph 17 mph 94% 0.00 in 0 W/m2
17:34 28.6 °F 27.1 °F 29.82 in NNE 7.8 mph 18 mph 94% 0.00 in 0 W/m2
17:39 28.7 °F 27.2 °F 29.81 in North 7.5 mph 18 mph 94% 0.00 in 0 W/m2
17:44 28.7 °F 27.2 °F 29.81 in North 7.2 mph 21 mph 94% 0.00 in 0 W/m2
17:49 28.7 °F 27.2 °F 29.81 in NNE 8 mph 21 mph 94% 0.00 in 0 W/m2
17:54 28.8 °F 27.3 °F 29.80 in North 7.6 mph 21 mph 94% 0.00 in 0 W/m2
17:59 28.9 °F 27.3 °F 29.80 in North 8.7 mph 21 mph 94% 0.00 in 0 W/m2
18:04 28.9 °F 27.4 °F 29.79 in NNE 7.3 mph 21 mph 94% 0.00 in 0 W/m2
18:09 28.9 °F 27.4 °F 29.79 in North 8 mph 21 mph 94% 0.00 in 0 W/m2
18:14 29 °F 27.5 °F 29.78 in North 7.4 mph 21 mph 94% 0.00 in 0 W/m2
18:19 29 °F 27.5 °F 29.78 in North 8.1 mph 24 mph 94% 0.00 in 0 W/m2
18:24 29.1 °F 27.6 °F 29.78 in North 8.6 mph 24 mph 94% 0.00 in 0 W/m2
18:29 29.2 °F 27.7 °F 29.77 in North 8.1 mph 24 mph 94% 0.00 in 0 W/m2
18:34 29.2 °F 27.7 °F 29.77 in NNE 6.4 mph 24 mph 94% 0.00 in 0 W/m2
18:39 29.2 °F 27.7 °F 29.77 in NNE 9.2 mph 19 mph 94% 0.00 in 0 W/m2
18:44 29.3 °F 27.8 °F 29.76 in North 7.7 mph 19 mph 94% 0.00 in 0 W/m2
18:49 29.3 °F 27.8 °F 29.76 in North 8.4 mph 19 mph 94% 0.00 in 0 W/m2
18:54 29.4 °F 27.9 °F 29.76 in NNE 7 mph 19 mph 94% 0.00 in 0 W/m2
18:59 29.4 °F 27.9 °F 29.75 in NNE 9.4 mph 19 mph 94% 0.00 in 0 W/m2
19:04 29.4 °F 27.9 °F 29.75 in North 8.3 mph 19 mph 94% 0.00 in 0 W/m2
19:09 29.4 °F 27.9 °F 29.75 in North 7.7 mph 18 mph 94% 0.00 in 0 W/m2
19:14 29.4 °F 27.9 °F 29.75 in North 8.8 mph 19 mph 94% 0.00 in 0 W/m2
19:19 29.4 °F 27.9 °F 29.74 in NNE 7.7 mph 19 mph 94% 0.00 in 0 W/m2
19:24 29.4 °F 27.9 °F 29.74 in North 8.3 mph 19 mph 94% 0.00 in 0 W/m2
19:29 29.5 °F 28 °F 29.73 in North 8.2 mph 19 mph 94% 0.00 in 0 W/m2
19:34 29.5 °F 28 °F 29.73 in North 8.5 mph 19 mph 94% 0.00 in 0 W/m2
19:39 29.6 °F 28.2 °F 29.73 in NNE 8 mph 19 mph 94.4% 0.00 in 0 W/m2
19:44 29.6 °F 28.4 °F 29.73 in NNE 9.2 mph 19 mph 95% 0.00 in 0 W/m2
19:49 29.6 °F 28.4 °F 29.73 in NNE 7.6 mph 19 mph 95% 0.00 in 0 W/m2
19:54 29.7 °F 28.4 °F 29.72 in NNE 6.2 mph 19 mph 95% 0.00 in 0 W/m2
19:59 29.7 °F 28.5 °F 29.72 in NNE 8 mph 21 mph 95% 0.00 in 0 W/m2
20:04 29.7 °F 28.5 °F 29.71 in NNE 6.7 mph 10 mph 95% 0.00 in 0 W/m2
20:09 29.7 °F 28.5 °F 29.71 in North 7 mph 14 mph 95% 0.00 in 0 W/m2
20:14 29.7 °F 28.5 °F 29.71 in North 7.4 mph 15 mph 95% 0.00 in 0 W/m2
20:19 29.8 °F 28.5 °F 29.70 in North 8.1 mph 19 mph 95% 0.00 in 0 W/m2
20:24 29.8 °F 28.6 °F 29.70 in NNE 8 mph 19 mph 95% 0.00 in 0 W/m2
20:29 29.8 °F 28.6 °F 29.70 in NNE 7.6 mph 20 mph 95% 0.00 in 0 W/m2
20:34 29.9 °F 28.6 °F 29.70 in NE 6.6 mph 20 mph 95% 0.00 in 0 W/m2
20:39 29.9 °F 28.7 °F 29.69 in NNE 7 mph 15 mph 95% 0.00 in 0 W/m2
20:44 30 °F 28.7 °F 29.69 in North 5.8 mph 15 mph 95% 0.00 in 0 W/m2
20:49 30.1 °F 28.8 °F 29.69 in NNE 6.1 mph 15 mph 95% 0.00 in 0 W/m2
20:54 30.1 °F 28.9 °F 29.69 in NNE 6.8 mph 15 mph 95% 0.00 in 0 W/m2
20:59 30.2 °F 29 °F 29.69 in North 7.5 mph 16 mph 95% 0.00 in 0 W/m2
21:04 30.3 °F 29 °F 29.68 in North 6.2 mph 18 mph 95% 0.00 in 0 W/m2
21:09 30.4 °F 29.1 °F 29.69 in NNE 6.1 mph 18 mph 95% 0.00 in 0 W/m2
21:14 30.5 °F 29.2 °F 29.69 in NNE 5.2 mph 18 mph 95% 0.00 in 0 W/m2
21:19 30.5 °F 29.3 °F 29.69 in North 6.4 mph 18 mph 95% 0.00 in 0 W/m2
21:24 30.6 °F 29.3 °F 29.68 in North 5.7 mph 18 mph 95% 0.00 in 0 W/m2
21:29 30.7 °F 29.4 °F 29.68 in North 7.1 mph 18 mph 95% 0.00 in 0 W/m2
21:34 30.7 °F 29.5 °F 29.67 in North 6.4 mph 18 mph 95% 0.00 in 0 W/m2
21:39 30.8 °F 29.5 °F 29.67 in NNE 6.4 mph 16 mph 95% 0.00 in 0 W/m2
21:44 30.9 °F 29.6 °F 29.67 in North 7.1 mph 19 mph 95% 0.00 in 0 W/m2
21:49 30.9 °F 29.7 °F 29.66 in North 5 mph 19 mph 95% 0.00 in 0 W/m2
21:54 31 °F 29.7 °F 29.67 in North 6 mph 19 mph 95% 0.00 in 0 W/m2
21:59 31.1 °F 29.8 °F 29.66 in North 6.2 mph 19 mph 95% 0.00 in 0 W/m2
22:04 31.2 °F 29.9 °F 29.66 in North 7 mph 19 mph 95% 0.00 in 0 W/m2
22:09 31.2 °F 29.9 °F 29.65 in North 6.2 mph 16 mph 95% 0.00 in 0 W/m2
22:14 31.2 °F 29.9 °F 29.65 in North 7.4 mph 16 mph 95% 0.00 in 0 W/m2
22:19 31.3 °F 30 °F 29.65 in NNE 5.3 mph 21 mph 95% 0.00 in 0 W/m2
22:24 31.3 °F 30 °F 29.65 in North 5.3 mph 21 mph 95% 0.00 in 0 W/m2
22:29 31.3 °F 30.1 °F 29.64 in North 6 mph 21 mph 95% 0.00 in 0 W/m2
22:34 31.4 °F 30.1 °F 29.64 in North 5.8 mph 21 mph 95% 0.00 in 0 W/m2
22:39 31.4 °F 30.1 °F 29.64 in North 6.4 mph 18 mph 95% 0.00 in 0 W/m2
22:44 31.4 °F 30.1 °F 29.64 in North 5.8 mph 18 mph 95% 0.00 in 0 W/m2
22:49 31.5 °F 30.2 °F 29.64 in North 5.5 mph 18 mph 95% 0.00 in 0 W/m2
22:54 31.5 °F 30.2 °F 29.64 in North 5.4 mph 18 mph 95% 0.00 in 0 W/m2
22:59 31.5 °F 30.2 °F 29.64 in NNE 4.1 mph 18 mph 95% 0.00 in 0 W/m2
23:00 31.6 °F 30.3 °F 29.63 in North 10 mph 18 mph 95% 0.00 in 0 W/m2
23:09 31.6 °F 30.3 °F 29.63 in North 6.4 mph 14 mph 95% 0.00 in 0 W/m2
23:14 31.7 °F 30.4 °F 29.63 in North 5.4 mph 14 mph 95% 0.00 in 0 W/m2
23:19 31.7 °F 30.4 °F 29.63 in NNE 5.6 mph 14 mph 95% 0.00 in 0 W/m2
23:24 31.8 °F 30.5 °F 29.63 in NNE 3.9 mph 14 mph 95% 0.00 in 0 W/m2
23:29 31.8 °F 30.6 °F 29.62 in NNE 4.9 mph 14 mph 95% 0.00 in 0 W/m2
23:34 31.9 °F 30.6 °F 29.63 in North 6.3 mph 14 mph 95% 0.00 in 0 W/m2
23:39 31.9 °F 30.7 °F 29.62 in NNE 5.7 mph 13 mph 95% 0.00 in 0 W/m2
23:44 32 °F 30.7 °F 29.62 in NNE 5.7 mph 13 mph 95% 0.00 in 0 W/m2
23:49 32.1 °F 30.8 °F 29.61 in North 4.7 mph 13 mph 95% 0.00 in 0 W/m2
23:54 32.1 °F 30.9 °F 29.62 in North 4.5 mph 13 mph 95% 0.00 in 0 W/m2
23:59 32.2 °F 30.9 °F 29.61 in NNE 4.1 mph 13 mph 95% 0.00 in 0 W/m2
Hartford County Weather
Compliments of Weather Underground - 2 mb